Time,TemperatureF,DewpointF,PressureIn,WindDirection,WindDirectionDegrees,WindSpeedMPH,WindSpeedGustMPH,Humidity,HourlyPrecipIn,Conditions,Clouds,dailyrainin,SoftwareType,DateUTC
2013-11-17 00:02:00,52.9,50.0,29.97,West,278,1.0,6.0,90,0.00,,,0.00,meteohub,2013-11-17 08:02:00,
2013-11-17 00:07:00,52.9,50.4,29.97,West,278,6.0,8.0,91,0.00,,,0.00,meteohub,2013-11-17 08:07:00,
2013-11-17 00:12:00,52.9,50.4,29.97,WNW,284,5.0,8.0,91,0.00,,,0.00,meteohub,2013-11-17 08:12:00,
2013-11-17 00:17:00,52.7,50.2,29.97,West,278,6.0,8.0,91,0.00,,,0.00,meteohub,2013-11-17 08:17:00,
2013-11-17 00:22:00,52.5,50.0,29.97,West,278,3.0,7.0,91,0.00,,,0.00,meteohub,2013-11-17 08:22:00,
2013-11-17 00:27:00,52.5,50.0,29.97,WNW,289,1.0,7.0,91,0.00,,,0.00,meteohub,2013-11-17 08:27:00,
2013-11-17 00:32:00,52.3,49.8,29.97,West,279,1.0,9.0,91,0.00,,,0.00,meteohub,2013-11-17 08:32:00,
2013-11-17 00:37:00,52.5,50.2,29.97,West,279,0.0,9.0,92,0.00,,,0.00,meteohub,2013-11-17 08:37:00,
2013-11-17 00:42:00,52.5,50.2,29.97,West,279,1.0,8.0,92,0.00,,,0.00,meteohub,2013-11-17 08:42:00,
2013-11-17 00:47:00,52.9,50.5,29.97,West,279,0.0,6.0,92,0.00,,,0.00,meteohub,2013-11-17 08:47:00,
2013-11-17 00:52:00,53.1,50.7,29.98,West,279,0.0,5.0,92,0.00,,,0.00,meteohub,2013-11-17 08:52:00,
2013-11-17 00:57:00,53.1,50.7,29.98,West,277,5.0,5.0,92,0.00,,,0.00,meteohub,2013-11-17 08:57:00,
2013-11-17 01:02:00,53.1,50.7,29.98,West,279,1.0,5.0,92,0.00,,,0.00,meteohub,2013-11-17 09:02:00,
2013-11-17 01:07:00,53.1,50.5,29.98,West,279,0.0,5.0,91,0.00,,,0.00,meteohub,2013-11-17 09:07:00,
2013-11-17 01:12:00,53.1,50.5,29.98,West,279,0.0,7.0,91,0.00,,,0.00,meteohub,2013-11-17 09:12:00,
2013-11-17 01:17:00,53.1,50.5,29.98,West,279,0.0,7.0,91,0.00,,,0.00,meteohub,2013-11-17 09:17:00,
2013-11-17 01:22:00,53.1,50.5,29.98,West,279,0.0,4.0,91,0.00,,,0.00,meteohub,2013-11-17 09:22:00,
2013-11-17 01:27:00,53.2,50.7,29.98,West,278,0.0,3.0,91,0.00,,,0.00,meteohub,2013-11-17 09:27:00,
2013-11-17 01:32:00,53.6,51.1,29.98,West,281,0.0,3.0,91,0.00,,,0.00,meteohub,2013-11-17 09:32:00,
2013-11-17 01:37:00,53.6,51.1,29.98,West,279,0.0,2.0,91,0.00,,,0.00,meteohub,2013-11-17 09:37:00,
2013-11-17 01:42:00,53.8,51.3,29.99,West,279,0.0,2.0,91,0.00,,,0.00,meteohub,2013-11-17 09:42:00,
2013-11-17 01:47:00,54.0,51.1,29.98,West,278,0.0,5.0,90,0.00,,,0.00,meteohub,2013-11-17 09:47:00,
2013-11-17 01:52:00,54.1,51.3,29.99,West,278,1.0,6.0,90,0.00,,,0.00,meteohub,2013-11-17 09:52:00,
2013-11-17 01:57:00,54.0,50.7,29.99,West,278,0.0,6.0,89,0.00,,,0.00,meteohub,2013-11-17 09:57:00,
2013-11-17 02:02:00,54.1,50.9,29.98,West,278,1.0,3.0,89,0.00,,,0.00,meteohub,2013-11-17 10:02:00,
2013-11-17 02:07:00,54.0,50.5,29.98,West,278,1.0,3.0,88,0.00,,,0.00,meteohub,2013-11-17 10:07:00,
2013-11-17 02:12:00,54.0,50.7,29.99,West,278,0.0,3.0,89,0.00,,,0.00,meteohub,2013-11-17 10:12:00,
2013-11-17 02:17:00,54.1,50.7,29.99,West,278,0.0,3.0,88,0.00,,,0.00,meteohub,2013-11-17 10:17:00,
2013-11-17 02:22:00,54.3,50.9,29.98,West,278,0.0,3.0,88,0.00,,,0.00,meteohub,2013-11-17 10:22:00,
2013-11-17 02:27:00,54.3,50.9,29.99,West,278,1.0,3.0,88,0.00,,,0.00,meteohub,2013-11-17 10:27:00,
2013-11-17 02:32:00,54.1,50.4,29.99,West,278,0.0,5.0,87,0.00,,,0.00,meteohub,2013-11-17 10:32:00,
2013-11-17 02:37:00,54.1,50.4,29.99,West,278,1.0,5.0,87,0.00,,,0.00,meteohub,2013-11-17 10:37:00,
2013-11-17 02:42:00,54.1,50.7,29.99,West,278,0.0,6.0,88,0.00,,,0.00,meteohub,2013-11-17 10:42:00,
2013-11-17 02:47:00,54.1,50.7,29.99,West,278,3.0,6.0,88,0.00,,,0.00,meteohub,2013-11-17 10:47:00,
2013-11-17 02:52:00,54.1,50.7,29.99,West,278,3.0,4.0,88,0.00,,,0.00,meteohub,2013-11-17 10:52:00,
2013-11-17 02:57:00,54.0,50.5,29.99,West,278,0.0,4.0,88,0.00,,,0.00,meteohub,2013-11-17 10:57:00,
2013-11-17 03:02:00,54.0,50.5,29.99,West,278,0.0,5.0,88,0.00,,,0.00,meteohub,2013-11-17 11:02:00,
2013-11-17 03:07:00,54.1,50.7,29.99,West,279,0.0,5.0,88,0.00,,,0.00,meteohub,2013-11-17 11:07:00,
2013-11-17 03:12:00,54.0,50.2,29.99,West,278,1.0,5.0,87,0.00,,,0.00,meteohub,2013-11-17 11:12:00,
2013-11-17 03:17:00,54.0,50.2,29.99,West,278,0.0,6.0,87,0.00,,,0.00,meteohub,2013-11-17 11:17:00,
2013-11-17 03:22:00,54.0,50.2,29.99,West,278,5.0,6.0,87,0.00,,,0.00,meteohub,2013-11-17 11:22:00,
2013-11-17 03:27:00,54.0,50.2,29.99,West,278,0.0,6.0,87,0.00,,,0.00,meteohub,2013-11-17 11:27:00,
2013-11-17 03:32:00,54.0,50.2,29.99,West,279,0.0,5.0,87,0.00,,,0.00,meteohub,2013-11-17 11:32:00,
2013-11-17 03:37:00,54.1,50.4,29.99,West,279,0.0,5.0,87,0.00,,,0.00,meteohub,2013-11-17 11:37:00,
2013-11-17 03:42:00,54.1,50.4,29.99,West,278,2.0,5.0,87,0.00,,,0.00,meteohub,2013-11-17 11:42:00,
2013-11-17 03:47:00,54.0,50.2,29.99,West,278,1.0,6.0,87,0.00,,,0.00,meteohub,2013-11-17 11:47:00,
2013-11-17 03:52:00,54.0,50.2,29.99,West,279,3.0,7.0,87,0.00,,,0.00,meteohub,2013-11-17 11:52:00,
2013-11-17 03:57:00,54.0,50.2,29.99,West,277,5.0,7.0,87,0.00,,,0.00,meteohub,2013-11-17 11:57:00,
2013-11-17 04:02:00,54.0,50.2,29.99,West,278,4.0,7.0,87,0.00,,,0.00,meteohub,2013-11-17 12:02:00,
2013-11-17 04:07:00,54.0,49.8,30.00,West,277,5.0,7.0,86,0.00,,,0.00,meteohub,2013-11-17 12:07:00,
2013-11-17 04:12:00,53.4,49.3,30.00,West,278,0.0,8.0,86,0.00,,,0.00,meteohub,2013-11-17 12:12:00,
2013-11-17 04:17:00,53.8,49.6,30.00,West,279,0.0,8.0,86,0.00,,,0.00,meteohub,2013-11-17 12:17:00,
2013-11-17 04:22:00,53.6,49.5,30.00,West,278,0.0,8.0,86,0.00,,,0.00,meteohub,2013-11-17 12:22:00,
2013-11-17 04:27:00,53.4,49.1,30.00,West,279,0.0,4.0,85,0.00,,,0.00,meteohub,2013-11-17 12:27:00,
2013-11-17 04:32:00,53.4,49.1,30.00,West,279,1.0,4.0,85,0.00,,,0.00,meteohub,2013-11-17 12:32:00,
2013-11-17 04:37:00,53.2,48.9,30.00,West,278,2.0,4.0,85,0.00,,,0.00,meteohub,2013-11-17 12:37:00,
2013-11-17 04:42:00,53.1,48.9,30.00,West,279,0.0,8.0,86,0.00,,,0.00,meteohub,2013-11-17 12:42:00,
2013-11-17 04:47:00,52.9,48.7,30.00,West,278,1.0,8.0,86,0.00,,,0.00,meteohub,2013-11-17 12:47:00,
2013-11-17 04:52:00,52.9,48.7,30.00,West,279,0.0,8.0,86,0.00,,,0.00,meteohub,2013-11-17 12:52:00,
2013-11-17 04:57:00,52.9,49.1,30.01,West,279,0.0,8.0,87,0.00,,,0.00,meteohub,2013-11-17 12:57:00,
2013-11-17 05:02:00,52.7,48.9,30.00,West,279,2.0,8.0,87,0.00,,,0.00,meteohub,2013-11-17 13:02:00,
2013-11-17 05:07:00,52.5,48.7,30.01,West,279,0.0,7.0,87,0.00,,,0.00,meteohub,2013-11-17 13:07:00,
2013-11-17 05:12:00,52.5,48.7,30.01,West,280,0.0,7.0,87,0.00,,,0.00,meteohub,2013-11-17 13:12:00,
2013-11-17 05:17:00,52.5,48.7,30.01,West,279,0.0,6.0,87,0.00,,,0.00,meteohub,2013-11-17 13:17:00,
2013-11-17 05:22:00,52.5,48.7,30.01,West,278,0.0,5.0,87,0.00,,,0.00,meteohub,2013-11-17 13:22:00,
2013-11-17 05:27:00,52.5,48.7,30.01,West,279,1.0,5.0,87,0.00,,,0.00,meteohub,2013-11-17 13:27:00,
2013-11-17 05:32:00,52.5,49.1,30.01,West,279,0.0,5.0,88,0.00,,,0.00,meteohub,2013-11-17 13:32:00,
2013-11-17 05:37:00,52.5,49.1,30.01,West,279,1.0,5.0,88,0.00,,,0.00,meteohub,2013-11-17 13:37:00,
2013-11-17 05:42:00,52.5,49.1,30.01,West,279,0.0,5.0,88,0.00,,,0.00,meteohub,2013-11-17 13:42:00,
2013-11-17 05:47:00,52.9,49.5,30.01,West,279,0.0,3.0,88,0.00,,,0.00,meteohub,2013-11-17 13:47:00,
2013-11-17 05:52:00,53.1,49.6,30.02,West,279,1.0,3.0,88,0.00,,,0.00,meteohub,2013-11-17 13:52:00,
2013-11-17 05:57:00,53.1,49.6,30.02,West,279,0.0,3.0,88,0.00,,,0.00,meteohub,2013-11-17 13:57:00,
2013-11-17 06:02:00,53.1,49.6,30.02,West,279,0.0,3.0,88,0.00,,,0.00,meteohub,2013-11-17 14:02:00,
2013-11-17 06:07:00,53.1,49.3,30.02,West,279,0.0,3.0,87,0.00,,,0.00,meteohub,2013-11-17 14:07:00,
2013-11-17 06:12:00,53.2,49.5,30.02,West,279,0.0,3.0,87,0.00,,,0.00,meteohub,2013-11-17 14:12:00,
2013-11-17 06:17:00,53.2,49.5,30.02,West,279,0.0,3.0,87,0.00,,,0.00,meteohub,2013-11-17 14:17:00,
2013-11-17 06:22:00,53.6,49.8,30.02,West,279,0.0,3.0,87,0.00,,,0.00,meteohub,2013-11-17 14:22:00,
2013-11-17 06:27:00,53.8,50.0,30.03,West,279,0.0,1.0,87,0.00,,,0.00,meteohub,2013-11-17 14:27:00,
2013-11-17 06:32:00,53.8,49.6,30.03,West,279,0.0,1.0,86,0.00,,,0.00,meteohub,2013-11-17 14:32:00,
2013-11-17 06:37:00,53.4,49.1,30.03,West,279,0.0,3.0,85,0.00,,,0.00,meteohub,2013-11-17 14:37:00,
2013-11-17 06:42:00,53.2,49.1,30.03,West,279,1.0,3.0,86,0.00,,,0.00,meteohub,2013-11-17 14:42:00,
2013-11-17 06:47:00,53.4,49.3,30.03,West,279,0.0,3.0,86,0.00,,,0.00,meteohub,2013-11-17 14:47:00,
2013-11-17 06:52:00,53.8,49.6,30.04,West,278,3.0,3.0,86,0.00,,,0.00,meteohub,2013-11-17 14:52:00,
2013-11-17 06:57:00,53.4,49.1,30.04,West,278,3.0,3.0,85,0.00,,,0.00,meteohub,2013-11-17 14:57:00,
2013-11-17 07:02:00,53.2,49.1,30.04,West,278,0.0,3.0,86,0.00,,,0.00,meteohub,2013-11-17 15:02:00,
2013-11-17 07:07:00,53.1,48.9,30.04,West,278,0.0,4.0,86,0.00,,,0.00,meteohub,2013-11-17 15:07:00,
2013-11-17 07:12:00,53.1,48.9,30.05,West,278,0.0,4.0,86,0.00,,,0.00,meteohub,2013-11-17 15:12:00,
2013-11-17 07:17:00,53.1,48.9,30.05,West,278,1.0,6.0,86,0.00,,,0.00,meteohub,2013-11-17 15:17:00,
2013-11-17 07:22:00,53.2,49.1,30.05,West,278,0.0,6.0,86,0.00,,,0.00,meteohub,2013-11-17 15:22:00,
2013-11-17 07:27:00,53.2,49.1,30.05,West,278,0.0,6.0,86,0.00,,,0.00,meteohub,2013-11-17 15:27:00,
2013-11-17 07:32:00,53.8,49.6,30.06,West,278,0.0,5.0,86,0.00,,,0.00,meteohub,2013-11-17 15:32:00,
2013-11-17 07:37:00,54.0,49.6,30.06,West,278,0.0,1.0,85,0.00,,,0.00,meteohub,2013-11-17 15:37:00,
2013-11-17 07:42:00,54.7,50.2,30.06,West,278,0.0,1.0,85,0.00,,,0.00,meteohub,2013-11-17 15:42:00,
2013-11-17 07:47:00,55.2,50.2,30.06,West,278,0.0,1.0,83,0.00,,,0.00,meteohub,2013-11-17 15:47:00,
2013-11-17 07:52:00,54.9,49.5,30.06,West,278,0.0,1.0,82,0.00,,,0.00,meteohub,2013-11-17 15:52:00,
2013-11-17 07:57:00,55.0,50.0,30.06,West,278,0.0,1.0,83,0.00,,,0.00,meteohub,2013-11-17 15:57:00,
2013-11-17 08:02:00,55.0,49.6,30.06,West,278,2.0,2.0,82,0.00,,,0.00,meteohub,2013-11-17 16:02:00,
2013-11-17 08:07:00,55.0,49.3,30.06,West,278,0.0,2.0,81,0.00,,,0.00,meteohub,2013-11-17 16:07:00,
2013-11-17 08:12:00,55.2,49.5,30.07,West,278,0.0,2.0,81,0.00,,,0.00,meteohub,2013-11-17 16:12:00,
2013-11-17 08:17:00,55.6,49.1,30.07,West,278,0.0,2.0,79,0.00,,,0.00,meteohub,2013-11-17 16:17:00,
2013-11-17 08:22:00,56.1,49.6,30.07,West,278,0.0,4.0,79,0.00,,,0.00,meteohub,2013-11-17 16:22:00,
2013-11-17 08:27:00,56.1,48.9,30.07,NE,53,3.0,4.0,77,0.00,,,0.00,meteohub,2013-11-17 16:27:00,
2013-11-17 08:32:00,55.8,48.9,30.07,NE,55,3.0,4.0,78,0.00,,,0.00,meteohub,2013-11-17 16:32:00,
2013-11-17 08:37:00,55.9,49.1,30.08,NE,55,1.0,4.0,78,0.00,,,0.00,meteohub,2013-11-17 16:37:00,
2013-11-17 08:42:00,55.6,48.6,30.08,ENE,57,0.0,5.0,77,0.00,,,0.00,meteohub,2013-11-17 16:42:00,
2013-11-17 08:47:00,56.1,49.6,30.08,ENE,57,1.0,5.0,79,0.00,,,0.00,meteohub,2013-11-17 16:47:00,
2013-11-17 08:52:00,56.1,48.9,30.08,ENE,57,4.0,5.0,77,0.00,,,0.00,meteohub,2013-11-17 16:52:00,
2013-11-17 08:57:00,56.1,49.3,30.09,NE,56,4.0,5.0,78,0.00,,,0.00,meteohub,2013-11-17 16:57:00,
2013-11-17 09:02:00,55.9,49.1,30.09,NE,56,0.0,5.0,78,0.00,,,0.00,meteohub,2013-11-17 17:02:00,
2013-11-17 09:07:00,55.8,48.9,30.09,ENE,60,4.0,5.0,78,0.00,,,0.00,meteohub,2013-11-17 17:07:00,
2013-11-17 09:12:00,55.8,48.9,30.09,NE,55,0.0,7.0,78,0.00,,,0.00,meteohub,2013-11-17 17:12:00,
2013-11-17 09:17:00,55.9,49.1,30.09,NE,55,0.0,7.0,78,0.00,,,0.00,meteohub,2013-11-17 17:17:00,
2013-11-17 09:22:00,56.5,49.6,30.09,NE,55,0.0,7.0,78,0.00,,,0.00,meteohub,2013-11-17 17:22:00,
2013-11-17 09:27:00,56.7,49.5,30.10,NE,55,0.0,4.0,77,0.00,,,0.00,meteohub,2013-11-17 17:27:00,
2013-11-17 09:32:00,56.3,49.1,30.10,ENE,57,5.0,5.0,77,0.00,,,0.00,meteohub,2013-11-17 17:32:00,
2013-11-17 09:37:00,56.1,49.3,30.10,ENE,58,9.0,9.0,78,0.00,,,0.00,meteohub,2013-11-17 17:37:00,
2013-11-17 09:42:00,55.9,48.9,30.10,NE,56,2.0,9.0,77,0.00,,,0.00,meteohub,2013-11-17 17:42:00,
2013-11-17 09:47:00,55.9,49.1,30.10,ENE,57,1.0,9.0,78,0.00,,,0.00,meteohub,2013-11-17 17:47:00,
2013-11-17 09:52:00,56.5,49.6,30.11,NE,54,0.0,9.0,78,0.00,,,0.00,meteohub,2013-11-17 17:52:00,
2013-11-17 09:57:00,57.0,49.8,30.11,NE,54,0.0,7.0,77,0.00,,,0.00,meteohub,2013-11-17 17:57:00,
2013-11-17 10:02:00,57.4,49.5,30.11,ENE,57,4.0,8.0,75,0.00,,,0.00,meteohub,2013-11-17 18:02:00,
2013-11-17 10:07:00,57.6,50.0,30.11,NE,55,5.0,8.0,76,0.00,,,0.00,meteohub,2013-11-17 18:07:00,
2013-11-17 10:12:00,57.2,49.3,30.11,NE,55,1.0,8.0,75,0.00,,,0.00,meteohub,2013-11-17 18:12:00,
2013-11-17 10:17:00,57.4,49.8,30.12,NE,55,0.0,7.0,76,0.00,,,0.00,meteohub,2013-11-17 18:17:00,
2013-11-17 10:22:00,57.4,49.5,30.12,West,279,1.0,9.0,75,0.00,,,0.00,meteohub,2013-11-17 18:22:00,
2013-11-17 10:27:00,57.6,49.6,30.12,NE,55,2.0,9.0,75,0.00,,,0.00,meteohub,2013-11-17 18:27:00,
2013-11-17 10:32:00,57.7,50.2,30.12,ENE,57,0.0,9.0,76,0.00,,,0.00,meteohub,2013-11-17 18:32:00,
2013-11-17 10:37:00,58.5,49.5,30.12,ENE,63,3.0,9.0,72,0.00,,,0.00,meteohub,2013-11-17 18:37:00,
2013-11-17 10:42:00,58.8,49.5,30.12,ENE,66,4.0,7.0,71,0.00,,,0.00,meteohub,2013-11-17 18:42:00,
2013-11-17 10:47:00,58.5,48.7,30.12,ENE,60,0.0,7.0,70,0.00,,,0.00,meteohub,2013-11-17 18:47:00,
2013-11-17 10:52:00,59.5,49.8,30.12,ENE,59,0.0,7.0,70,0.00,,,0.00,meteohub,2013-11-17 18:52:00,
2013-11-17 10:57:00,59.9,49.3,30.12,West,280,0.0,7.0,68,0.00,,,0.00,meteohub,2013-11-17 18:57:00,
2013-11-17 11:02:00,60.4,49.5,30.12,West,280,0.0,8.0,67,0.00,,,0.00,meteohub,2013-11-17 19:02:00,
2013-11-17 11:07:00,61.2,49.6,30.12,West,280,5.0,8.0,66,0.00,,,0.00,meteohub,2013-11-17 19:07:00,
2013-11-17 11:12:00,61.0,49.5,30.12,West,280,2.0,7.0,66,0.00,,,0.00,meteohub,2013-11-17 19:12:00,
2013-11-17 11:17:00,60.3,48.9,30.12,West,279,2.0,8.0,66,0.00,,,0.00,meteohub,2013-11-17 19:17:00,
2013-11-17 11:22:00,59.9,49.3,30.11,West,279,3.0,8.0,68,0.00,,,0.00,meteohub,2013-11-17 19:22:00,
2013-11-17 11:27:00,59.2,49.1,30.11,West,279,1.0,9.0,69,0.00,,,0.00,meteohub,2013-11-17 19:27:00,
2013-11-17 11:32:00,59.5,49.8,30.11,West,279,3.0,9.0,70,0.00,,,0.00,meteohub,2013-11-17 19:32:00,
2013-11-17 11:37:00,59.4,49.1,30.11,West,279,0.0,9.0,69,0.00,,,0.00,meteohub,2013-11-17 19:37:00,
2013-11-17 11:42:00,60.1,49.5,30.11,West,279,1.0,8.0,68,0.00,,,0.00,meteohub,2013-11-17 19:42:00,
2013-11-17 11:47:00,60.1,49.1,30.10,West,279,0.0,8.0,67,0.00,,,0.00,meteohub,2013-11-17 19:47:00,
2013-11-17 11:52:00,60.3,48.9,30.10,West,279,3.0,9.0,66,0.00,,,0.00,meteohub,2013-11-17 19:52:00,
2013-11-17 11:57:00,60.4,50.5,30.10,NNW,346,1.0,9.0,70,0.00,,,0.00,meteohub,2013-11-17 19:57:00,
2013-11-17 12:02:00,60.6,50.7,30.10,ENE,57,3.0,7.0,70,0.00,,,0.00,meteohub,2013-11-17 20:02:00,
2013-11-17 12:07:00,60.6,48.7,30.10,ENE,60,1.0,7.0,65,0.00,,,0.00,meteohub,2013-11-17 20:07:00,
2013-11-17 12:12:00,60.3,48.0,30.10,ENE,61,1.0,7.0,64,0.00,,,0.00,meteohub,2013-11-17 20:12:00,
2013-11-17 12:17:00,60.1,47.8,30.09,ENE,63,2.0,9.0,64,0.00,,,0.00,meteohub,2013-11-17 20:17:00,
2013-11-17 12:22:00,60.3,47.7,30.09,West,280,2.0,9.0,63,0.00,,,0.00,meteohub,2013-11-17 20:22:00,
2013-11-17 12:27:00,60.4,47.3,30.09,West,279,4.0,9.0,62,0.00,,,0.00,meteohub,2013-11-17 20:27:00,
2013-11-17 12:32:00,60.8,47.3,30.09,ENE,67,2.0,7.0,61,0.00,,,0.00,meteohub,2013-11-17 20:32:00,
2013-11-17 12:37:00,60.8,47.7,30.09,ENE,63,1.0,10.0,62,0.00,,,0.00,meteohub,2013-11-17 20:37:00,
2013-11-17 12:42:00,61.5,48.4,30.09,West,280,2.0,10.0,62,0.00,,,0.00,meteohub,2013-11-17 20:42:00,
2013-11-17 12:47:00,61.3,47.8,30.08,West,279,3.0,10.0,61,0.00,,,0.00,meteohub,2013-11-17 20:47:00,
2013-11-17 12:52:00,61.2,48.0,30.08,West,278,7.0,8.0,62,0.00,,,0.00,meteohub,2013-11-17 20:52:00,
2013-11-17 12:57:00,61.2,48.0,30.08,West,279,0.0,9.0,62,0.00,,,0.00,meteohub,2013-11-17 20:57:00,
2013-11-17 13:02:00,61.3,47.8,30.08,West,278,5.0,9.0,61,0.00,,,0.00,meteohub,2013-11-17 21:02:00,
2013-11-17 13:07:00,61.0,47.5,30.08,West,279,0.0,9.0,61,0.00,,,0.00,meteohub,2013-11-17 21:07:00,
2013-11-17 13:12:00,61.0,47.8,30.08,West,278,3.0,8.0,62,0.00,,,0.00,meteohub,2013-11-17 21:12:00,
2013-11-17 13:17:00,61.0,48.4,30.07,West,279,3.0,8.0,63,0.00,,,0.00,meteohub,2013-11-17 21:17:00,
2013-11-17 13:22:00,61.5,48.7,30.07,West,279,3.0,8.0,63,0.00,,,0.00,meteohub,2013-11-17 21:22:00,
2013-11-17 13:27:00,61.9,48.7,30.07,West,279,0.0,7.0,62,0.00,,,0.00,meteohub,2013-11-17 21:27:00,
2013-11-17 13:32:00,61.7,48.9,30.07,West,279,1.0,6.0,63,0.00,,,0.00,meteohub,2013-11-17 21:32:00,
2013-11-17 13:37:00,61.5,48.7,30.07,West,279,0.0,9.0,63,0.00,,,0.00,meteohub,2013-11-17 21:37:00,
2013-11-17 13:42:00,61.3,48.6,30.07,West,279,1.0,12.0,63,0.00,,,0.00,meteohub,2013-11-17 21:42:00,
2013-11-17 13:47:00,61.3,48.2,30.07,West,279,3.0,12.0,62,0.00,,,0.00,meteohub,2013-11-17 21:47:00,
2013-11-17 13:52:00,60.4,47.8,30.07,West,279,2.0,12.0,63,0.00,,,0.00,meteohub,2013-11-17 21:52:00,
2013-11-17 13:57:00,60.1,48.2,30.07,West,279,1.0,11.0,65,0.00,,,0.00,meteohub,2013-11-17 21:57:00,
2013-11-17 14:02:00,59.5,48.2,30.07,West,277,6.0,11.0,66,0.00,,,0.00,meteohub,2013-11-17 22:02:00,
2013-11-17 14:07:00,59.2,48.6,30.07,West,277,9.0,12.0,68,0.00,,,0.00,meteohub,2013-11-17 22:07:00,
2013-11-17 14:12:00,58.8,48.7,30.07,West,278,2.0,12.0,69,0.00,,,0.00,meteohub,2013-11-17 22:12:00,
2013-11-17 14:17:00,59.5,49.3,30.07,West,278,4.0,12.0,69,0.00,,,0.00,meteohub,2013-11-17 22:17:00,
2013-11-17 14:22:00,60.3,49.6,30.07,West,277,5.0,10.0,68,0.00,,,0.00,meteohub,2013-11-17 22:22:00,
2013-11-17 14:27:00,59.7,49.5,30.07,West,279,2.0,10.0,69,0.00,,,0.00,meteohub,2013-11-17 22:27:00,
2013-11-17 14:32:00,60.4,49.5,30.07,West,277,6.0,8.0,67,0.00,,,0.00,meteohub,2013-11-17 22:32:00,
2013-11-17 14:37:00,59.9,49.3,30.07,West,279,1.0,9.0,68,0.00,,,0.00,meteohub,2013-11-17 22:37:00,
2013-11-17 14:42:00,60.4,49.8,30.07,West,279,1.0,9.0,68,0.00,,,0.00,meteohub,2013-11-17 22:42:00,
2013-11-17 14:47:00,61.0,49.5,30.07,West,279,2.0,9.0,66,0.00,,,0.00,meteohub,2013-11-17 22:47:00,
2013-11-17 14:52:00,61.2,49.6,30.07,West,279,4.0,5.0,66,0.00,,,0.00,meteohub,2013-11-17 22:52:00,
2013-11-17 14:57:00,60.6,49.3,30.07,West,278,2.0,5.0,66,0.00,,,0.00,meteohub,2013-11-17 22:57:00,
2013-11-17 15:02:00,60.1,49.1,30.07,West,279,0.0,8.0,67,0.00,,,0.00,meteohub,2013-11-17 23:02:00,
2013-11-17 15:07:00,59.9,49.3,30.07,West,277,3.0,8.0,68,0.00,,,0.00,meteohub,2013-11-17 23:07:00,
2013-11-17 15:12:00,58.8,49.1,30.07,West,278,2.0,9.0,70,0.00,,,0.00,meteohub,2013-11-17 23:12:00,
2013-11-17 15:17:00,59.2,49.5,30.07,West,279,1.0,9.0,70,0.00,,,0.00,meteohub,2013-11-17 23:17:00,
2013-11-17 15:22:00,59.0,48.9,30.07,West,277,4.0,9.0,69,0.00,,,0.00,meteohub,2013-11-17 23:22:00,
2013-11-17 15:27:00,58.3,48.9,30.07,West,278,3.0,7.0,71,0.00,,,0.00,meteohub,2013-11-17 23:27:00,
2013-11-17 15:32:00,57.9,48.9,30.07,West,278,4.0,7.0,72,0.00,,,0.00,meteohub,2013-11-17 23:32:00,
2013-11-17 15:37:00,57.9,48.9,30.07,West,278,2.0,7.0,72,0.00,,,0.00,meteohub,2013-11-17 23:37:00,
2013-11-17 15:42:00,57.6,48.9,30.07,West,279,2.0,7.0,73,0.00,,,0.00,meteohub,2013-11-17 23:42:00,
2013-11-17 15:47:00,57.7,49.1,30.07,West,279,1.0,6.0,73,0.00,,,0.00,meteohub,2013-11-17 23:47:00,
2013-11-17 15:52:00,57.9,48.9,30.07,West,279,0.0,5.0,72,0.00,,,0.00,meteohub,2013-11-17 23:52:00,
2013-11-17 15:57:00,57.9,49.3,30.07,West,279,0.0,3.0,73,0.00,,,0.00,meteohub,2013-11-17 23:57:00,
2013-11-17 16:02:00,57.9,49.3,30.07,West,279,0.0,2.0,73,0.00,,,0.00,meteohub,2013-11-18 00:02:00,
2013-11-17 16:07:00,57.9,48.9,30.07,West,278,2.0,5.0,72,0.00,,,0.00,meteohub,2013-11-18 00:07:00,
2013-11-17 16:12:00,57.4,48.4,30.07,West,278,2.0,5.0,72,0.00,,,0.00,meteohub,2013-11-18 00:12:00,
2013-11-17 16:17:00,56.8,48.2,30.07,West,278,1.0,6.0,73,0.00,,,0.00,meteohub,2013-11-18 00:17:00,
2013-11-17 16:22:00,56.7,48.7,30.07,West,278,3.0,6.0,75,0.00,,,0.00,meteohub,2013-11-18 00:22:00,
2013-11-17 16:27:00,56.1,48.4,30.07,West,278,1.0,7.0,75,0.00,,,0.00,meteohub,2013-11-18 00:27:00,
2013-11-17 16:32:00,55.9,48.2,30.07,West,278,3.0,8.0,75,0.00,,,0.00,meteohub,2013-11-18 00:32:00,
2013-11-17 16:37:00,56.1,48.7,30.07,West,278,0.0,8.0,76,0.00,,,0.00,meteohub,2013-11-18 00:37:00,
2013-11-17 16:42:00,56.1,48.7,30.07,West,279,0.0,5.0,76,0.00,,,0.00,meteohub,2013-11-18 00:42:00,
2013-11-17 16:47:00,56.1,48.7,30.07,West,279,0.0,5.0,76,0.00,,,0.00,meteohub,2013-11-18 00:47:00,
2013-11-17 16:52:00,56.1,48.7,30.07,West,279,1.0,5.0,76,0.00,,,0.00,meteohub,2013-11-18 00:52:00,
2013-11-17 16:57:00,55.9,48.6,30.08,WNW,287,0.0,4.0,76,0.00,,,0.00,meteohub,2013-11-18 00:57:00,
2013-11-17 17:02:00,55.9,48.6,30.07,West,279,0.0,4.0,76,0.00,,,0.00,meteohub,2013-11-18 01:02:00,
2013-11-17 17:07:00,55.8,48.4,30.07,West,279,0.0,4.0,76,0.00,,,0.00,meteohub,2013-11-18 01:07:00,
2013-11-17 17:12:00,55.6,48.2,30.07,West,279,0.0,2.0,76,0.00,,,0.00,meteohub,2013-11-18 01:12:00,
2013-11-17 17:17:00,55.6,48.2,30.08,West,279,0.0,1.0,76,0.00,,,0.00,meteohub,2013-11-18 01:17:00,
2013-11-17 17:22:00,55.6,48.6,30.07,West,279,1.0,1.0,77,0.00,,,0.00,meteohub,2013-11-18 01:22:00,
2013-11-17 17:27:00,55.4,48.0,30.08,West,278,0.0,5.0,76,0.00,,,0.00,meteohub,2013-11-18 01:27:00,
2013-11-17 17:32:00,55.0,47.7,30.08,West,278,1.0,5.0,76,0.00,,,0.00,meteohub,2013-11-18 01:32:00,
2013-11-17 17:37:00,55.2,47.8,30.08,West,278,2.0,5.0,76,0.00,,,0.00,meteohub,2013-11-18 01:37:00,
2013-11-17 17:42:00,55.4,48.0,30.08,West,278,0.0,5.0,76,0.00,,,0.00,meteohub,2013-11-18 01:42:00,
2013-11-17 17:47:00,55.6,48.2,30.08,West,278,0.0,5.0,76,0.00,,,0.00,meteohub,2013-11-18 01:47:00,
2013-11-17 17:52:00,55.9,48.6,30.09,West,279,0.0,4.0,76,0.00,,,0.00,meteohub,2013-11-18 01:52:00,
2013-11-17 17:57:00,56.1,48.7,30.09,West,279,0.0,3.0,76,0.00,,,0.00,meteohub,2013-11-18 01:57:00,
2013-11-17 18:02:00,56.1,48.4,30.09,West,279,0.0,2.0,75,0.00,,,0.00,meteohub,2013-11-18 02:02:00,
2013-11-17 18:07:00,55.9,48.2,30.09,West,279,0.0,3.0,75,0.00,,,0.00,meteohub,2013-11-18 02:07:00,
2013-11-17 18:12:00,55.8,48.0,30.09,West,279,1.0,3.0,75,0.00,,,0.00,meteohub,2013-11-18 02:12:00,
2013-11-17 18:17:00,55.8,48.0,30.09,West,279,0.0,3.0,75,0.00,,,0.00,meteohub,2013-11-18 02:17:00,
2013-11-17 18:22:00,55.6,47.8,30.09,West,279,0.0,3.0,75,0.00,,,0.00,meteohub,2013-11-18 02:22:00,
2013-11-17 18:27:00,55.4,47.7,30.09,West,279,0.0,3.0,75,0.00,,,0.00,meteohub,2013-11-18 02:27:00,
2013-11-17 18:32:00,55.4,47.7,30.09,West,279,0.0,1.0,75,0.00,,,0.00,meteohub,2013-11-18 02:32:00,
2013-11-17 18:37:00,55.6,47.8,30.09,West,279,0.0,1.0,75,0.00,,,0.00,meteohub,2013-11-18 02:37:00,
2013-11-17 18:42:00,55.6,47.8,30.09,West,279,0.0,1.0,75,0.00,,,0.00,meteohub,2013-11-18 02:42:00,
2013-11-17 18:47:00,55.6,47.8,30.09,West,279,0.0,1.0,75,0.00,,,0.00,meteohub,2013-11-18 02:47:00,
2013-11-17 18:52:00,55.6,47.8,30.09,West,279,0.0,1.0,75,0.00,,,0.00,meteohub,2013-11-18 02:52:00,
2013-11-17 18:57:00,55.9,48.2,30.09,West,279,0.0,1.0,75,0.00,,,0.00,meteohub,2013-11-18 02:57:00,
2013-11-17 19:02:00,56.3,48.2,30.09,West,279,0.0,2.0,74,0.00,,,0.00,meteohub,2013-11-18 03:02:00,
2013-11-17 19:07:00,56.5,48.0,30.09,West,279,0.0,2.0,73,0.00,,,0.00,meteohub,2013-11-18 03:07:00,
2013-11-17 19:12:00,56.5,48.0,30.09,West,279,0.0,2.0,73,0.00,,,0.00,meteohub,2013-11-18 03:12:00,
2013-11-17 19:17:00,56.3,47.5,30.09,West,279,2.0,2.0,72,0.00,,,0.00,meteohub,2013-11-18 03:17:00,
2013-11-17 19:22:00,55.9,47.1,30.10,West,279,0.0,2.0,72,0.00,,,0.00,meteohub,2013-11-18 03:22:00,
2013-11-17 19:27:00,55.8,46.9,30.09,West,279,0.0,2.0,72,0.00,,,0.00,meteohub,2013-11-18 03:27:00,
2013-11-17 19:32:00,55.6,47.1,30.09,West,279,0.0,3.0,73,0.00,,,0.00,meteohub,2013-11-18 03:32:00,
2013-11-17 19:37:00,55.2,46.8,30.10,West,279,0.0,3.0,73,0.00,,,0.00,meteohub,2013-11-18 03:37:00,
2013-11-17 19:42:00,55.0,46.6,30.10,West,279,0.0,1.0,73,0.00,,,0.00,meteohub,2013-11-18 03:42:00,
2013-11-17 19:47:00,55.0,46.6,30.10,West,279,0.0,1.0,73,0.00,,,0.00,meteohub,2013-11-18 03:47:00,
2013-11-17 19:52:00,54.9,46.8,30.10,West,279,1.0,2.0,74,0.00,,,0.00,meteohub,2013-11-18 03:52:00,
2013-11-17 19:57:00,54.9,47.1,30.10,West,281,0.0,2.0,75,0.00,,,0.00,meteohub,2013-11-18 03:57:00,
2013-11-17 20:02:00,54.9,47.1,30.10,West,279,0.0,2.0,75,0.00,,,0.00,meteohub,2013-11-18 04:02:00,
2013-11-17 20:07:00,54.7,47.3,30.10,West,279,1.0,2.0,76,0.00,,,0.00,meteohub,2013-11-18 04:07:00,
2013-11-17 20:12:00,54.7,47.3,30.11,West,278,4.0,4.0,76,0.00,,,0.00,meteohub,2013-11-18 04:12:00,
2013-11-17 20:17:00,54.3,47.3,30.11,West,278,4.0,6.0,77,0.00,,,0.00,meteohub,2013-11-18 04:17:00,
2013-11-17 20:22:00,54.3,47.7,30.11,West,279,0.0,6.0,78,0.00,,,0.00,meteohub,2013-11-18 04:22:00,
2013-11-17 20:27:00,54.3,47.7,30.11,West,279,0.0,6.0,78,0.00,,,0.00,meteohub,2013-11-18 04:27:00,
2013-11-17 20:32:00,54.3,47.7,30.11,West,279,0.0,4.0,78,0.00,,,0.00,meteohub,2013-11-18 04:32:00,
2013-11-17 20:37:00,54.1,47.5,30.11,West,279,3.0,4.0,78,0.00,,,0.00,meteohub,2013-11-18 04:37:00,
2013-11-17 20:42:00,54.1,47.8,30.11,West,279,0.0,6.0,79,0.00,,,0.00,meteohub,2013-11-18 04:42:00,
2013-11-17 20:47:00,54.1,47.8,30.11,West,279,0.0,6.0,79,0.00,,,0.00,meteohub,2013-11-18 04:47:00,
2013-11-17 20:52:00,54.1,48.0,30.11,West,279,2.0,5.0,80,0.00,,,0.00,meteohub,2013-11-18 04:52:00,
2013-11-17 20:57:00,54.1,48.0,30.11,West,278,1.0,5.0,80,0.00,,,0.00,meteohub,2013-11-18 04:57:00,
2013-11-17 21:02:00,54.1,48.0,30.11,West,279,1.0,4.0,80,0.00,,,0.00,meteohub,2013-11-18 05:02:00,
2013-11-17 21:07:00,54.0,48.2,30.11,West,279,0.0,4.0,81,0.00,,,0.00,meteohub,2013-11-18 05:07:00,
2013-11-17 21:12:00,54.0,48.2,30.11,West,278,0.0,5.0,81,0.00,,,0.00,meteohub,2013-11-18 05:12:00,
2013-11-17 21:17:00,54.0,48.6,30.12,West,279,0.0,5.0,82,0.00,,,0.00,meteohub,2013-11-18 05:17:00,
2013-11-17 21:22:00,53.8,48.4,30.12,West,279,0.0,5.0,82,0.00,,,0.00,meteohub,2013-11-18 05:22:00,
2013-11-17 21:27:00,53.8,48.4,30.12,West,279,0.0,4.0,82,0.00,,,0.00,meteohub,2013-11-18 05:27:00,
2013-11-17 21:37:00,53.8,48.7,30.12,West,278,3.0,5.0,83,0.00,,,0.00,meteohub,2013-11-18 05:37:00,
2013-11-17 21:42:00,53.8,48.7,30.12,West,279,0.0,5.0,83,0.00,,,0.00,meteohub,2013-11-18 05:42:00,
2013-11-17 21:47:00,53.8,48.7,30.12,West,279,0.0,5.0,83,0.00,,,0.00,meteohub,2013-11-18 05:47:00,
2013-11-17 21:52:00,53.8,48.7,30.12,West,279,2.0,5.0,83,0.00,,,0.00,meteohub,2013-11-18 05:52:00,
2013-11-17 21:57:00,53.6,48.6,30.12,West,279,0.0,3.0,83,0.00,,,0.00,meteohub,2013-11-18 05:57:00,
2013-11-17 22:02:00,53.4,48.4,30.12,West,279,1.0,3.0,83,0.00,,,0.00,meteohub,2013-11-18 06:02:00,
2013-11-17 22:07:00,53.4,48.4,30.12,West,279,1.0,3.0,83,0.00,,,0.00,meteohub,2013-11-18 06:07:00,
2013-11-17 22:12:00,53.4,48.4,30.12,West,279,0.0,3.0,83,0.00,,,0.00,meteohub,2013-11-18 06:12:00,
2013-11-17 22:17:00,53.4,48.4,30.12,West,279,0.0,3.0,83,0.00,,,0.00,meteohub,2013-11-18 06:17:00,
2013-11-17 22:22:00,53.4,48.4,30.12,West,279,0.0,3.0,83,0.00,,,0.00,meteohub,2013-11-18 06:22:00,
2013-11-17 22:27:00,53.4,48.4,30.12,West,280,0.0,1.0,83,0.00,,,0.00,meteohub,2013-11-18 06:27:00,
2013-11-17 22:32:00,53.4,48.4,30.12,West,281,0.0,1.0,83,0.00,,,0.00,meteohub,2013-11-18 06:32:00,
2013-11-17 22:37:00,53.4,48.4,30.12,West,281,0.0,1.0,83,0.00,,,0.00,meteohub,2013-11-18 06:37:00,
2013-11-17 22:42:00,53.4,48.4,30.12,West,281,0.0,1.0,83,0.00,,,0.00,meteohub,2013-11-18 06:42:00,
2013-11-17 22:47:00,53.4,48.4,30.12,West,281,0.0,1.0,83,0.00,,,0.00,meteohub,2013-11-18 06:47:00,
2013-11-17 22:52:00,53.6,48.6,30.13,West,281,0.0,0.0,83,0.00,,,0.00,meteohub,2013-11-18 06:52:00,
2013-11-17 22:57:00,54.0,49.3,30.12,West,281,0.0,0.0,84,0.00,,,0.00,meteohub,2013-11-18 06:57:00,
2013-11-17 23:02:00,54.0,48.6,30.13,West,280,0.0,1.0,82,0.00,,,0.00,meteohub,2013-11-18 07:02:00,
2013-11-17 23:07:00,54.0,48.6,30.13,West,280,0.0,1.0,82,0.00,,,0.00,meteohub,2013-11-18 07:07:00,
2013-11-17 23:12:00,54.1,48.7,30.13,West,280,0.0,1.0,82,0.00,,,0.00,meteohub,2013-11-18 07:12:00,
2013-11-17 23:17:00,54.3,48.9,30.13,West,280,0.0,1.0,82,0.00,,,0.00,meteohub,2013-11-18 07:17:00,
2013-11-17 23:22:00,54.3,48.6,30.13,West,280,0.0,0.0,81,0.00,,,0.00,meteohub,2013-11-18 07:22:00,
2013-11-17 23:27:00,54.1,48.4,30.13,West,280,0.0,0.0,81,0.00,,,0.00,meteohub,2013-11-18 07:27:00,
2013-11-17 23:32:00,54.3,48.9,30.14,West,280,0.0,0.0,82,0.00,,,0.00,meteohub,2013-11-18 07:32:00,
2013-11-17 23:37:00,54.1,48.4,30.14,West,280,0.0,0.0,81,0.00,,,0.00,meteohub,2013-11-18 07:37:00,
2013-11-17 23:42:00,54.1,48.7,30.14,West,280,0.0,0.0,82,0.00,,,0.00,meteohub,2013-11-18 07:42:00,
2013-11-17 23:47:00,54.1,48.4,30.14,West,280,0.0,0.0,81,0.00,,,0.00,meteohub,2013-11-18 07:47:00,
2013-11-17 23:52:00,54.0,48.2,30.14,West,280,0.0,0.0,81,0.00,,,0.00,meteohub,2013-11-18 07:52:00,
2013-11-17 23:57:00,54.0,48.6,30.14,West,280,0.0,2.0,82,0.00,,,0.00,meteohub,2013-11-18 07:57:00,